S C — FGF7634 — position and weather

sailwx.info

Track history (hours):
 
Tides and Currents Weather Stations Pressure Air Temp Water Temp Dewpoint Dewpoint Depression Visibility Wind Speed Wind Dir Waves Ship Positions

S C

Last reported at 2015-Apr-10 12:33 UTC. Time now 2015-Apr-18 15:15 UTC.
Position N 49°29' E 000°07'.
Warning: this ship's position is 8 days out of date.

; draft 1 m.

Type: Pilot. MMSI: 227001820.

Date/timePositionNaut miles runAvg speedWind from/ knotsBaromVisibWave heightAir tempDewpointWater temp
2015-Apr-10 12:33N 49°29' E 000°07'0 0.0
2015-Apr-10 11:33N 49°29' E 000°07'0 0.0
2015-Apr-10 10:33N 49°29' E 000°07'0 0.0
2015-Apr-10 09:33N 49°29' E 000°07'0 0.0
2015-Apr-10 08:33N 49°29' E 000°07'0 0.0
2015-Apr-10 07:33N 49°29' E 000°07'0 0.0
2015-Apr-10 06:34N 49°29' E 000°07'0 0.0
2015-Apr-10 05:33N 49°29' E 000°07'0 0.0
2015-Apr-10 04:33N 49°29' E 000°07'3 2.5
2015-Apr-10 03:33N 49°30' E 000°03'2 2.2
2015-Apr-10 02:33N 49°29' E 000°06'1 0.8
2015-Apr-10 01:33N 49°29' E 000°05'1 1.1
2015-Apr-10 00:33N 49°29' E 000°07'0 0.0
2015-Apr-09 23:33N 49°29' E 000°07'0 0.0
2015-Apr-09 22:33N 49°29' E 000°07'0 0.0
2015-Apr-09 21:34N 49°29' E 000°07'0 0.0
2015-Apr-09 20:34N 49°29' E 000°07'0 0.0
2015-Apr-09 19:34N 49°29' E 000°07'0 0.0
2015-Apr-09 18:33N 49°29' E 000°07'0 0.0
2015-Apr-09 17:33N 49°29' E 000°07'0 0.0
2015-Apr-09 16:33N 49°29' E 000°07'0 0.0
2015-Apr-09 15:33N 49°29' E 000°07'0 0.0
2015-Apr-09 14:34N 49°29' E 000°07'0 0.0
2015-Apr-09 13:33N 49°29' E 000°07'3 3.0
2015-Apr-09 12:33N 49°28' E 000°03'3 2.9
2015-Apr-09 11:33N 49°29' E 000°07'0 0.0
2015-Apr-09 10:33N 49°29' E 000°07'0 0.0
2015-Apr-09 09:33N 49°29' E 000°07'0 0.0
2015-Apr-09 08:33N 49°29' E 000°07'0 0.0
2015-Apr-09 07:33N 49°29' E 000°07'0 0.0
2015-Apr-09 06:33N 49°29' E 000°07'0 0.0
2015-Apr-09 05:33N 49°29' E 000°07'7 7.1
2015-Apr-09 04:33N 49°31' W 000°04'7 7.0
2015-Apr-09 03:32N 49°29' E 000°07'0 0.0
2015-Apr-09 02:33N 49°29' E 000°07'8 8.0
2015-Apr-09 01:34N 49°31' W 000°05'8 8.0
2015-Apr-09 00:33N 49°29' E 000°07'0 0.0
2015-Apr-08 23:33N 49°29' E 000°07'0 0.0
2015-Apr-08 22:33N 49°29' E 000°07'0 0.0
2015-Apr-08 21:33N 49°29' E 000°07'1 1.4
2015-Apr-08 20:33N 49°29' E 000°05'1 1.3
2015-Apr-08 19:32N 49°29' E 000°07'0 0.0
2015-Apr-08 18:33N 49°29' E 000°07'2 1.9
2015-Apr-08 17:33N 49°29' E 000°04'2 1.9
2015-Apr-08 16:33N 49°29' E 000°07'0 0.0
2015-Apr-08 15:33N 49°29' E 000°07'0 0.1
2015-Apr-08 14:33N 49°29' E 000°07'0 0.1
2015-Apr-08 13:34N 49°29' E 000°07'6 6.0
2015-Apr-08 12:34N 49°33' W 000°01'6 6.0
2015-Apr-08 11:33N 49°29' E 000°07'0 0.2
2015-Apr-08 10:33N 49°29' E 000°06'0 0.1
2015-Apr-08 09:33N 49°29' E 000°07'0 0.1
2015-Apr-08 08:34N 49°29' E 000°07'0 0.0
2015-Apr-08 07:33N 49°29' E 000°07'0 0.0
2015-Apr-08 06:33N 49°29' E 000°07'0 0.0
2015-Apr-08 05:33N 49°29' E 000°07'0 0.0
2015-Apr-08 04:34N 49°29' E 000°07'8 8.0
2015-Apr-08 03:34N 49°31' W 000°05'2 2.0
2015-Apr-08 02:33N 49°32' W 000°08'10 9.9
2015-Apr-08 01:33N 49°29' E 000°07'0 0.0
2015-Apr-08 00:33N 49°29' E 000°07'0 0.0
2015-Apr-07 23:33N 49°29' E 000°07'5 5.2
2015-Apr-07 22:33N 49°30' W 000°01'2 2.5
2015-Apr-07 21:33N 49°29' E 000°03'3 2.7
2015-Apr-07 20:33N 49°29' E 000°07'2 1.9
2015-Apr-07 19:34N 49°29' E 000°04'2 1.9
2015-Apr-07 18:33N 49°29' E 000°07'7 7.1
2015-Apr-07 17:33N 49°31' W 000°04'7 7.1
2015-Apr-07 16:34N 49°29' E 000°07'0 0.0
2015-Apr-07 15:33N 49°29' E 000°07'5 5.2
2015-Apr-07 14:34N 49°32' E 000°00'9 9.3
2015-Apr-07 13:34N 49°40' W 000°07'1414.1
2015-Apr-07 12:34N 49°29' E 000°07'1 0.8
2015-Apr-07 11:34N 49°29' E 000°06'1 0.8
2015-Apr-07 10:34N 49°29' E 000°07'0 0.0
2015-Apr-07 09:33N 49°29' E 000°07'  
2015-Apr-02 15:28N 49°29' E 000°07'2 2.3
2015-Apr-02 14:33N 49°29' E 000°04'8 8.5
2015-Apr-02 13:33N 49°31' W 000°09'8 7.9
2015-Apr-02 12:33N 49°30' E 000°03'3 0.1
2015-Apr-01 15:26N 49°29' E 000°07'0 0.0
2015-Apr-01 14:33N 49°29' E 000°07'0 0.0
2015-Apr-01 13:33N 49°29' E 000°07'0 0.0
2015-Apr-01 12:33N 49°29' E 000°07'0 0.0
2015-Apr-01 11:33N 49°29' E 000°07'  
Track history (hours):
 
Tides and Currents Weather Stations Pressure Air Temp Water Temp Dewpoint Dewpoint Depression Visibility Wind Speed Wind Dir Waves Ship Positions

S C

Last reported at 2015-Apr-10 12:33 UTC. Time now 2015-Apr-18 15:15 UTC.
Position N 49°29' E 000°07'.
Warning: this ship's position is 8 days out of date.

; draft 1 m.

Type: Pilot. MMSI: 227001820.

Date/timePositionNaut miles runAvg speedWind from/ knotsBaromVisibWave heightAir tempDewpointWater temp
2015-Apr-10 12:33N 49°29' E 000°07'0 0.0
2015-Apr-10 11:33N 49°29' E 000°07'0 0.0
2015-Apr-10 10:33N 49°29' E 000°07'0 0.0
2015-Apr-10 09:33N 49°29' E 000°07'0 0.0
2015-Apr-10 08:33N 49°29' E 000°07'0 0.0
2015-Apr-10 07:33N 49°29' E 000°07'0 0.0
2015-Apr-10 06:34N 49°29' E 000°07'0 0.0
2015-Apr-10 05:33N 49°29' E 000°07'0 0.0
2015-Apr-10 04:33N 49°29' E 000°07'3 2.5
2015-Apr-10 03:33N 49°30' E 000°03'2 2.2
2015-Apr-10 02:33N 49°29' E 000°06'1 0.8
2015-Apr-10 01:33N 49°29' E 000°05'1 1.1
2015-Apr-10 00:33N 49°29' E 000°07'0 0.0
2015-Apr-09 23:33N 49°29' E 000°07'0 0.0
2015-Apr-09 22:33N 49°29' E 000°07'0 0.0
2015-Apr-09 21:34N 49°29' E 000°07'0 0.0
2015-Apr-09 20:34N 49°29' E 000°07'0 0.0
2015-Apr-09 19:34N 49°29' E 000°07'0 0.0
2015-Apr-09 18:33N 49°29' E 000°07'0 0.0
2015-Apr-09 17:33N 49°29' E 000°07'0 0.0
2015-Apr-09 16:33N 49°29' E 000°07'0 0.0
2015-Apr-09 15:33N 49°29' E 000°07'0 0.0
2015-Apr-09 14:34N 49°29' E 000°07'0 0.0
2015-Apr-09 13:33N 49°29' E 000°07'3 3.0
2015-Apr-09 12:33N 49°28' E 000°03'3 2.9
2015-Apr-09 11:33N 49°29' E 000°07'0 0.0
2015-Apr-09 10:33N 49°29' E 000°07'0 0.0
2015-Apr-09 09:33N 49°29' E 000°07'0 0.0
2015-Apr-09 08:33N 49°29' E 000°07'0 0.0
2015-Apr-09 07:33N 49°29' E 000°07'0 0.0
2015-Apr-09 06:33N 49°29' E 000°07'0 0.0
2015-Apr-09 05:33N 49°29' E 000°07'7 7.1
2015-Apr-09 04:33N 49°31' W 000°04'7 7.0
2015-Apr-09 03:32N 49°29' E 000°07'0 0.0
2015-Apr-09 02:33N 49°29' E 000°07'8 8.0
2015-Apr-09 01:34N 49°31' W 000°05'8 8.0
2015-Apr-09 00:33N 49°29' E 000°07'0 0.0
2015-Apr-08 23:33N 49°29' E 000°07'0 0.0
2015-Apr-08 22:33N 49°29' E 000°07'0 0.0
2015-Apr-08 21:33N 49°29' E 000°07'1 1.4
2015-Apr-08 20:33N 49°29' E 000°05'1 1.3
2015-Apr-08 19:32N 49°29' E 000°07'0 0.0
2015-Apr-08 18:33N 49°29' E 000°07'2 1.9
2015-Apr-08 17:33N 49°29' E 000°04'2 1.9
2015-Apr-08 16:33N 49°29' E 000°07'0 0.0
2015-Apr-08 15:33N 49°29' E 000°07'0 0.1
2015-Apr-08 14:33N 49°29' E 000°07'0 0.1
2015-Apr-08 13:34N 49°29' E 000°07'6 6.0
2015-Apr-08 12:34N 49°33' W 000°01'6 6.0
2015-Apr-08 11:33N 49°29' E 000°07'0 0.2
2015-Apr-08 10:33N 49°29' E 000°06'0 0.1
2015-Apr-08 09:33N 49°29' E 000°07'0 0.1
2015-Apr-08 08:34N 49°29' E 000°07'0 0.0
2015-Apr-08 07:33N 49°29' E 000°07'0 0.0
2015-Apr-08 06:33N 49°29' E 000°07'0 0.0
2015-Apr-08 05:33N 49°29' E 000°07'0 0.0
2015-Apr-08 04:34N 49°29' E 000°07'8 8.0
2015-Apr-08 03:34N 49°31' W 000°05'2 2.0
2015-Apr-08 02:33N 49°32' W 000°08'10 9.9
2015-Apr-08 01:33N 49°29' E 000°07'0 0.0
2015-Apr-08 00:33N 49°29' E 000°07'0 0.0
2015-Apr-07 23:33N 49°29' E 000°07'5 5.2
2015-Apr-07 22:33N 49°30' W 000°01'2 2.5
2015-Apr-07 21:33N 49°29' E 000°03'3 2.7
2015-Apr-07 20:33N 49°29' E 000°07'2 1.9
2015-Apr-07 19:34N 49°29' E 000°04'2 1.9
2015-Apr-07 18:33N 49°29' E 000°07'7 7.1
2015-Apr-07 17:33N 49°31' W 000°04'7 7.1
2015-Apr-07 16:34N 49°29' E 000°07'0 0.0
2015-Apr-07 15:33N 49°29' E 000°07'5 5.2
2015-Apr-07 14:34N 49°32' E 000°00'9 9.3
2015-Apr-07 13:34N 49°40' W 000°07'1414.1
2015-Apr-07 12:34N 49°29' E 000°07'1 0.8
2015-Apr-07 11:34N 49°29' E 000°06'1 0.8
2015-Apr-07 10:34N 49°29' E 000°07'0 0.0
2015-Apr-07 09:33N 49°29' E 000°07'  
2015-Apr-02 15:28N 49°29' E 000°07'2 2.3
2015-Apr-02 14:33N 49°29' E 000°04'8 8.5
2015-Apr-02 13:33N 49°31' W 000°09'8 7.9
2015-Apr-02 12:33N 49°30' E 000°03'3 0.1
2015-Apr-01 15:26N 49°29' E 000°07'0 0.0
2015-Apr-01 14:33N 49°29' E 000°07'0 0.0
2015-Apr-01 13:33N 49°29' E 000°07'0 0.0
2015-Apr-01 12:33N 49°29' E 000°07'0 0.0
2015-Apr-01 11:33N 49°29' E 000°07'  

Dump ship's entire track history